createdAt,value
2019-05-16T00:09:33.725Z,8.43
2019-05-16T00:19:38.313Z,7.83
2019-05-16T00:29:42.744Z,7.50
2019-05-16T00:39:51.058Z,9.43
2019-05-16T00:49:58.211Z,10.17
2019-05-16T01:00:03.200Z,11.73
2019-05-16T01:10:09.158Z,12.07
2019-05-16T01:20:15.063Z,12.27
2019-05-16T01:30:19.643Z,13.70
2019-05-16T01:40:24.287Z,12.43
2019-05-16T01:50:28.899Z,13.00
2019-05-16T02:00:37.489Z,13.33
2019-05-16T02:10:40.015Z,14.77
2019-05-16T02:20:44.748Z,14.17
2019-05-16T02:30:51.478Z,15.63
2019-05-16T02:40:55.646Z,12.27
2019-05-16T02:51:01.889Z,12.50
2019-05-16T03:01:06.339Z,11.73
2019-05-16T03:11:11.928Z,11.97
2019-05-16T03:21:17.154Z,11.47
2019-05-16T03:31:24.504Z,11.97
2019-05-16T03:41:30.665Z,12.33
2019-05-16T03:51:34.141Z,11.70
2019-05-16T04:01:41.035Z,11.70
2019-05-16T04:11:44.811Z,10.37
2019-05-16T04:21:51.119Z,9.23
2019-05-16T04:31:55.508Z,9.07
2019-05-16T04:42:01.549Z,8.73
2019-05-16T04:52:06.409Z,9.93
2019-05-16T05:02:12.313Z,8.50
2019-05-16T05:12:20.728Z,8.67
2019-05-16T05:22:24.279Z,7.57
2019-05-16T05:32:30.529Z,7.00
2019-05-16T05:42:35.088Z,5.87
2019-05-16T05:52:41.158Z,3.47
2019-05-16T06:02:45.929Z,3.57
2019-05-16T06:12:50.394Z,4.33
2019-05-16T06:22:54.978Z,3.50
2019-05-16T06:32:59.731Z,6.70
2019-05-16T06:43:04.314Z,4.90
2019-05-16T06:53:10.408Z,4.30
2019-05-16T07:03:15.180Z,4.40
2019-05-16T07:13:19.894Z,4.70
2019-05-16T07:23:24.564Z,4.27
2019-05-16T07:33:31.235Z,5.23
2019-05-16T07:43:35.397Z,7.00
2019-05-16T07:53:40.358Z,5.57
2019-05-16T08:03:45.206Z,5.77
2019-05-16T08:13:50.709Z,4.57
2019-05-16T08:23:55.536Z,4.80
2019-05-16T08:34:00.901Z,5.90
2019-05-16T08:44:06.382Z,9.33
2019-05-16T08:54:13.301Z,9.78
2019-05-16T09:04:17.415Z,9.30
2019-05-16T09:14:21.861Z,6.77
2019-05-16T09:24:27.280Z,8.10
2019-05-16T09:34:32.012Z,9.50
2019-05-16T09:44:37.111Z,9.27
2019-05-16T09:54:41.730Z,9.23
2019-05-16T10:04:47.382Z,11.15
2019-05-16T10:14:52.183Z,10.43
2019-05-16T10:24:57.375Z,11.70
2019-05-16T10:35:01.890Z,8.83
2019-05-16T10:45:09.325Z,9.37
2019-05-16T10:55:14.215Z,7.67
2019-05-16T11:05:33.267Z,6.60
2019-05-16T11:15:27.839Z,6.77
2019-05-16T11:25:32.757Z,9.07
2019-05-16T11:35:38.199Z,7.87
2019-05-16T11:45:42.817Z,7.83
2019-05-16T11:55:55.417Z,7.00
2019-05-16T12:05:54.000Z,7.33
2019-05-16T12:15:59.054Z,5.73
2019-05-16T12:26:03.546Z,5.43
2019-05-16T12:36:08.255Z,6.40
2019-05-16T12:46:12.801Z,5.97
2019-05-16T12:56:17.677Z,6.40
2019-05-16T13:06:22.294Z,6.63
2019-05-16T13:16:28.253Z,7.08
2019-05-16T13:26:33.075Z,6.43
2019-05-16T13:36:38.848Z,7.73
2019-05-16T13:46:46.641Z,6.47
2019-05-16T13:56:50.562Z,7.00
2019-05-16T14:06:58.607Z,7.60
2019-05-16T14:17:01.429Z,8.03
2019-05-16T14:27:06.684Z,8.77
2019-05-16T14:37:11.636Z,7.53
2019-05-16T14:47:17.715Z,7.63
2019-05-16T14:57:22.531Z,11.67
2019-05-16T15:07:27.639Z,7.47
2019-05-16T15:17:32.275Z,9.27
2019-05-16T15:27:37.969Z,9.10
2019-05-16T15:37:42.482Z,9.13
2019-05-16T15:47:46.995Z,9.83
2019-05-16T15:57:51.688Z,9.47
2019-05-16T16:07:57.117Z,8.50
2019-05-16T16:18:01.651Z,8.30
2019-05-16T16:28:07.304Z,9.47
2019-05-16T16:38:16.497Z,8.20
2019-05-16T16:48:20.289Z,6.97
2019-05-16T16:58:26.611Z,7.27
2019-05-16T17:08:30.965Z,7.23
2019-05-16T17:18:36.897Z,7.33
2019-05-16T17:28:41.627Z,8.17
2019-05-16T17:38:47.026Z,9.87
2019-05-16T17:48:52.612Z,10.23
2019-05-16T17:58:57.375Z,10.07
2019-05-16T18:09:02.032Z,10.47
2019-05-16T18:19:08.246Z,12.03
2019-05-16T18:29:12.902Z,14.63
2019-05-16T18:39:17.568Z,11.57
2019-05-16T18:49:24.059Z,12.63
2019-05-16T18:59:28.512Z,13.73
2019-05-16T19:09:33.126Z,15.53
2019-05-16T19:19:37.874Z,15.30
2019-05-16T19:29:42.857Z,16.57
2019-05-16T19:39:47.554Z,18.10
2019-05-16T19:49:52.083Z,17.27
2019-05-16T19:59:56.790Z,16.97
2019-05-16T20:10:01.455Z,23.20
2019-05-16T20:20:07.796Z,27.90
2019-05-16T20:30:13.848Z,27.17
2019-05-16T20:40:18.918Z,17.70
2019-05-16T20:50:23.571Z,22.20
2019-05-16T21:00:28.260Z,20.85
2019-05-16T21:10:32.961Z,20.57
2019-05-16T21:20:38.985Z,19.50
2019-05-16T21:30:43.622Z,18.83
2019-05-16T21:40:48.290Z,18.47
2019-05-16T21:50:52.971Z,23.10
2019-05-16T22:00:58.679Z,23.23
2019-05-16T22:11:09.820Z,25.00
2019-05-16T22:21:16.373Z,24.07
2019-05-16T22:31:20.891Z,20.37
2019-05-16T22:41:26.513Z,23.63
2019-05-16T22:51:31.351Z,19.93
2019-05-16T23:01:37.694Z,20.37
2019-05-16T23:11:42.546Z,26.97
2019-05-16T23:21:47.554Z,20.70
2019-05-16T23:31:52.221Z,14.07
2019-05-16T23:41:57.822Z,16.00
2019-05-16T23:52:02.298Z,19.00
